sensor_id;sensor_type;location;lat;lon;timestamp;P1;durP1;ratioP1;P2;durP2;ratioP2
69750;SDS011;57335;52.288;6.056;2022-12-16T00:01:07;42.63;;;19.25;;
69750;SDS011;57335;52.288;6.056;2022-12-16T00:03:35;44.92;;;19.55;;
69750;SDS011;57335;52.288;6.056;2022-12-16T00:06:03;46.28;;;20.15;;
69750;SDS011;57335;52.288;6.056;2022-12-16T00:08:32;44.08;;;19.13;;
69750;SDS011;57335;52.288;6.056;2022-12-16T00:11:00;49.30;;;19.20;;
69750;SDS011;57335;52.288;6.056;2022-12-16T00:13:27;43.08;;;19.85;;
69750;SDS011;57335;52.288;6.056;2022-12-16T00:15:56;44.50;;;20.00;;
69750;SDS011;57335;52.288;6.056;2022-12-16T00:18:23;45.17;;;19.38;;
69750;SDS011;57335;52.288;6.056;2022-12-16T00:23:20;45.05;;;18.65;;
69750;SDS011;57335;52.288;6.056;2022-12-16T00:25:47;44.20;;;18.98;;
69750;SDS011;57335;52.288;6.056;2022-12-16T00:28:15;41.88;;;18.67;;
69750;SDS011;57335;52.288;6.056;2022-12-16T00:30:42;47.00;;;19.45;;
69750;SDS011;57335;52.288;6.056;2022-12-16T00:33:09;41.45;;;17.38;;
69750;SDS011;57335;52.288;6.056;2022-12-16T00:35:36;39.45;;;17.80;;
69750;SDS011;57335;52.288;6.056;2022-12-16T00:38:09;41.05;;;18.55;;
69750;SDS011;57335;52.288;6.056;2022-12-16T00:40:36;41.70;;;18.52;;
69750;SDS011;57335;52.288;6.056;2022-12-16T00:43:02;46.28;;;19.08;;
69750;SDS011;57335;52.288;6.056;2022-12-16T00:45:29;43.67;;;17.30;;
69750;SDS011;57335;52.288;6.056;2022-12-16T00:47:56;43.53;;;18.48;;
69750;SDS011;57335;52.288;6.056;2022-12-16T00:50:22;44.35;;;18.95;;
69750;SDS011;57335;52.288;6.056;2022-12-16T00:52:49;48.13;;;19.05;;
69750;SDS011;57335;52.288;6.056;2022-12-16T00:57:42;50.33;;;20.58;;
69750;SDS011;57335;52.288;6.056;2022-12-16T01:00:09;47.00;;;19.63;;
69750;SDS011;57335;52.288;6.056;2022-12-16T01:02:38;44.25;;;19.23;;
69750;SDS011;57335;52.288;6.056;2022-12-16T01:05:06;38.42;;;17.17;;
69750;SDS011;57335;52.288;6.056;2022-12-16T01:07:33;42.63;;;18.08;;
69750;SDS011;57335;52.288;6.056;2022-12-16T01:12:26;42.83;;;18.38;;
69750;SDS011;57335;52.288;6.056;2022-12-16T01:14:53;41.70;;;17.00;;
69750;SDS011;57335;52.288;6.056;2022-12-16T01:17:20;49.38;;;19.17;;
69750;SDS011;57335;52.288;6.056;2022-12-16T01:19:46;41.17;;;18.27;;
69750;SDS011;57335;52.288;6.056;2022-12-16T01:22:12;44.88;;;19.33;;
69750;SDS011;57335;52.288;6.056;2022-12-16T01:24:39;42.65;;;18.27;;
69750;SDS011;57335;52.288;6.056;2022-12-16T01:27:05;41.38;;;18.17;;
69750;SDS011;57335;52.288;6.056;2022-12-16T01:29:31;44.33;;;19.33;;
69750;SDS011;57335;52.288;6.056;2022-12-16T01:31:58;40.20;;;17.80;;
69750;SDS011;57335;52.288;6.056;2022-12-16T01:36:50;43.22;;;18.50;;
69750;SDS011;57335;52.288;6.056;2022-12-16T01:39:17;42.72;;;18.38;;
69750;SDS011;57335;52.288;6.056;2022-12-16T01:44:14;38.53;;;16.65;;
69750;SDS011;57335;52.288;6.056;2022-12-16T01:46:43;37.58;;;16.52;;
69750;SDS011;57335;52.288;6.056;2022-12-16T01:49:22;45.13;;;19.05;;
69750;SDS011;57335;52.288;6.056;2022-12-16T01:52:11;40.22;;;17.55;;
69750;SDS011;57335;52.288;6.056;2022-12-16T01:54:47;46.88;;;19.00;;
69750;SDS011;57335;52.288;6.056;2022-12-16T01:57:21;42.78;;;17.98;;
69750;SDS011;57335;52.288;6.056;2022-12-16T01:59:54;43.78;;;18.75;;
69750;SDS011;57335;52.288;6.056;2022-12-16T02:02:22;44.83;;;19.10;;
69750;SDS011;57335;52.288;6.056;2022-12-16T02:04:49;43.30;;;18.77;;
69750;SDS011;57335;52.288;6.056;2022-12-16T02:07:15;39.33;;;17.55;;
69750;SDS011;57335;52.288;6.056;2022-12-16T02:09:42;39.88;;;17.73;;
69750;SDS011;57335;52.288;6.056;2022-12-16T02:12:12;43.22;;;18.60;;
69750;SDS011;57335;52.288;6.056;2022-12-16T02:14:52;41.92;;;17.38;;
69750;SDS011;57335;52.288;6.056;2022-12-16T02:17:37;46.00;;;18.42;;
69750;SDS011;57335;52.288;6.056;2022-12-16T02:28:48;40.55;;;18.33;;
69750;SDS011;57335;52.288;6.056;2022-12-16T02:34:10;39.72;;;17.85;;
69750;SDS011;57335;52.288;6.056;2022-12-16T02:39:36;43.72;;;18.23;;
69750;SDS011;57335;52.288;6.056;2022-12-16T02:44:53;41.22;;;18.58;;
69750;SDS011;57335;52.288;6.056;2022-12-16T02:47:20;40.60;;;18.45;;
69750;SDS011;57335;52.288;6.056;2022-12-16T02:49:48;40.65;;;18.75;;
69750;SDS011;57335;52.288;6.056;2022-12-16T02:52:17;42.90;;;18.90;;
69750;SDS011;57335;52.288;6.056;2022-12-16T02:54:47;42.40;;;18.50;;
69750;SDS011;57335;52.288;6.056;2022-12-16T03:00:17;43.30;;;18.15;;
69750;SDS011;57335;52.288;6.056;2022-12-16T03:02:56;39.17;;;17.98;;
69750;SDS011;57335;52.288;6.056;2022-12-16T03:05:31;42.05;;;18.50;;
69750;SDS011;57335;52.288;6.056;2022-12-16T03:08:08;43.33;;;18.08;;
69750;SDS011;57335;52.288;6.056;2022-12-16T03:10:45;44.10;;;18.75;;
69750;SDS011;57335;52.288;6.056;2022-12-16T03:13:16;46.30;;;19.08;;
69750;SDS011;57335;52.288;6.056;2022-12-16T03:15:46;48.15;;;19.23;;
69750;SDS011;57335;52.288;6.056;2022-12-16T03:18:14;43.95;;;19.23;;
69750;SDS011;57335;52.288;6.056;2022-12-16T03:20:46;35.97;;;17.58;;
69750;SDS011;57335;52.288;6.056;2022-12-16T03:23:25;43.42;;;18.65;;
69750;SDS011;57335;52.288;6.056;2022-12-16T03:25:59;45.88;;;17.42;;
69750;SDS011;57335;52.288;6.056;2022-12-16T03:31:06;43.83;;;17.67;;
69750;SDS011;57335;52.288;6.056;2022-12-16T03:33:54;47.33;;;18.52;;
69750;SDS011;57335;52.288;6.056;2022-12-16T03:36:28;49.20;;;18.60;;
69750;SDS011;57335;52.288;6.056;2022-12-16T03:39:00;44.53;;;19.42;;
69750;SDS011;57335;52.288;6.056;2022-12-16T03:41:29;41.58;;;19.40;;
69750;SDS011;57335;52.288;6.056;2022-12-16T03:43:57;42.30;;;18.95;;
69750;SDS011;57335;52.288;6.056;2022-12-16T03:48:50;43.55;;;18.45;;
69750;SDS011;57335;52.288;6.056;2022-12-16T03:51:17;42.88;;;18.02;;
69750;SDS011;57335;52.288;6.056;2022-12-16T03:53:44;48.53;;;18.70;;
69750;SDS011;57335;52.288;6.056;2022-12-16T03:56:11;46.70;;;18.23;;
69750;SDS011;57335;52.288;6.056;2022-12-16T03:58:38;42.63;;;17.85;;
69750;SDS011;57335;52.288;6.056;2022-12-16T04:01:06;43.55;;;19.15;;
69750;SDS011;57335;52.288;6.056;2022-12-16T04:03:36;46.15;;;17.95;;
69750;SDS011;57335;52.288;6.056;2022-12-16T04:06:03;40.90;;;17.60;;
69750;SDS011;57335;52.288;6.056;2022-12-16T04:08:30;43.20;;;17.13;;
69750;SDS011;57335;52.288;6.056;2022-12-16T04:10:56;45.55;;;19.02;;
69750;SDS011;57335;52.288;6.056;2022-12-16T04:13:23;38.50;;;17.40;;
69750;SDS011;57335;52.288;6.056;2022-12-16T04:15:49;39.33;;;15.55;;
69750;SDS011;57335;52.288;6.056;2022-12-16T04:18:16;43.78;;;18.02;;
69750;SDS011;57335;52.288;6.056;2022-12-16T04:20:51;35.25;;;14.20;;
69750;SDS011;57335;52.288;6.056;2022-12-16T04:23:20;38.35;;;16.40;;
69750;SDS011;57335;52.288;6.056;2022-12-16T04:25:49;47.38;;;19.17;;
69750;SDS011;57335;52.288;6.056;2022-12-16T04:28:16;48.45;;;20.40;;
69750;SDS011;57335;52.288;6.056;2022-12-16T04:30:42;43.33;;;18.50;;
69750;SDS011;57335;52.288;6.056;2022-12-16T04:35:37;43.20;;;18.10;;
69750;SDS011;57335;52.288;6.056;2022-12-16T04:40:30;41.47;;;17.17;;
69750;SDS011;57335;52.288;6.056;2022-12-16T04:42:56;50.85;;;20.73;;
69750;SDS011;57335;52.288;6.056;2022-12-16T04:45:23;43.38;;;18.92;;
69750;SDS011;57335;52.288;6.056;2022-12-16T04:47:49;37.80;;;15.13;;
69750;SDS011;57335;52.288;6.056;2022-12-16T04:50:22;40.75;;;15.43;;
69750;SDS011;57335;52.288;6.056;2022-12-16T04:52:52;44.88;;;16.73;;
69750;SDS011;57335;52.288;6.056;2022-12-16T04:55:18;46.35;;;20.15;;
69750;SDS011;57335;52.288;6.056;2022-12-16T04:57:49;44.38;;;19.27;;
69750;SDS011;57335;52.288;6.056;2022-12-16T05:00:17;53.70;;;19.70;;
69750;SDS011;57335;52.288;6.056;2022-12-16T05:05:13;48.70;;;19.25;;
69750;SDS011;57335;52.288;6.056;2022-12-16T05:07:39;54.45;;;22.05;;
69750;SDS011;57335;52.288;6.056;2022-12-16T05:10:06;52.08;;;20.95;;
69750;SDS011;57335;52.288;6.056;2022-12-16T05:12:33;53.97;;;20.20;;
69750;SDS011;57335;52.288;6.056;2022-12-16T05:14:59;53.85;;;21.50;;
69750;SDS011;57335;52.288;6.056;2022-12-16T05:17:25;61.10;;;22.20;;
69750;SDS011;57335;52.288;6.056;2022-12-16T05:22:18;46.63;;;18.08;;
69750;SDS011;57335;52.288;6.056;2022-12-16T05:27:17;39.58;;;16.30;;
69750;SDS011;57335;52.288;6.056;2022-12-16T05:29:44;50.88;;;20.27;;
69750;SDS011;57335;52.288;6.056;2022-12-16T05:32:10;53.80;;;20.02;;
69750;SDS011;57335;52.288;6.056;2022-12-16T05:34:36;54.60;;;21.15;;
69750;SDS011;57335;52.288;6.056;2022-12-16T05:39:29;47.00;;;18.42;;
69750;SDS011;57335;52.288;6.056;2022-12-16T05:44:22;43.25;;;17.67;;
69750;SDS011;57335;52.288;6.056;2022-12-16T05:46:49;52.05;;;18.52;;
69750;SDS011;57335;52.288;6.056;2022-12-16T05:49:15;47.30;;;18.25;;
69750;SDS011;57335;52.288;6.056;2022-12-16T05:51:42;41.50;;;17.65;;
69750;SDS011;57335;52.288;6.056;2022-12-16T05:54:08;42.65;;;17.42;;
69750;SDS011;57335;52.288;6.056;2022-12-16T05:56:34;44.28;;;17.27;;
69750;SDS011;57335;52.288;6.056;2022-12-16T05:59:01;46.45;;;18.33;;
69750;SDS011;57335;52.288;6.056;2022-12-16T06:01:27;41.67;;;17.10;;
69750;SDS011;57335;52.288;6.056;2022-12-16T06:03:54;46.72;;;16.10;;
69750;SDS011;57335;52.288;6.056;2022-12-16T06:08:47;40.35;;;15.85;;
69750;SDS011;57335;52.288;6.056;2022-12-16T06:11:13;38.75;;;16.42;;
69750;SDS011;57335;52.288;6.056;2022-12-16T06:13:40;37.78;;;16.05;;
69750;SDS011;57335;52.288;6.056;2022-12-16T06:16:06;40.40;;;17.10;;
69750;SDS011;57335;52.288;6.056;2022-12-16T06:18:34;40.67;;;16.95;;
69750;SDS011;57335;52.288;6.056;2022-12-16T06:21:00;39.38;;;15.00;;
69750;SDS011;57335;52.288;6.056;2022-12-16T06:25:53;37.40;;;14.77;;
69750;SDS011;57335;52.288;6.056;2022-12-16T06:28:19;37.03;;;15.88;;
69750;SDS011;57335;52.288;6.056;2022-12-16T06:30:46;46.35;;;16.88;;
69750;SDS011;57335;52.288;6.056;2022-12-16T06:33:13;38.88;;;16.45;;
69750;SDS011;57335;52.288;6.056;2022-12-16T06:35:39;41.80;;;16.73;;
69750;SDS011;57335;52.288;6.056;2022-12-16T06:38:06;37.80;;;15.38;;
69750;SDS011;57335;52.288;6.056;2022-12-16T06:40:32;37.90;;;15.13;;
69750;SDS011;57335;52.288;6.056;2022-12-16T06:42:59;36.42;;;14.38;;
69750;SDS011;57335;52.288;6.056;2022-12-16T06:45:25;36.28;;;14.50;;
69750;SDS011;57335;52.288;6.056;2022-12-16T06:47:59;33.35;;;14.85;;
69750;SDS011;57335;52.288;6.056;2022-12-16T06:50:26;32.65;;;13.80;;
69750;SDS011;57335;52.288;6.056;2022-12-16T06:52:53;36.72;;;13.50;;
69750;SDS011;57335;52.288;6.056;2022-12-16T06:55:19;36.60;;;13.77;;
69750;SDS011;57335;52.288;6.056;2022-12-16T06:57:46;31.40;;;13.00;;
69750;SDS011;57335;52.288;6.056;2022-12-16T07:00:12;27.40;;;11.85;;
69750;SDS011;57335;52.288;6.056;2022-12-16T07:02:39;31.05;;;12.75;;
69750;SDS011;57335;52.288;6.056;2022-12-16T07:07:32;32.15;;;12.10;;
69750;SDS011;57335;52.288;6.056;2022-12-16T07:09:58;31.10;;;12.27;;
69750;SDS011;57335;52.288;6.056;2022-12-16T07:12:24;31.35;;;12.98;;
69750;SDS011;57335;52.288;6.056;2022-12-16T07:14:51;34.40;;;13.40;;
69750;SDS011;57335;52.288;6.056;2022-12-16T07:17:18;31.30;;;13.10;;
69750;SDS011;57335;52.288;6.056;2022-12-16T07:19:44;29.65;;;11.90;;
69750;SDS011;57335;52.288;6.056;2022-12-16T07:22:10;27.33;;;11.48;;
69750;SDS011;57335;52.288;6.056;2022-12-16T07:24:37;31.92;;;11.40;;
69750;SDS011;57335;52.288;6.056;2022-12-16T07:27:03;25.98;;;10.70;;
69750;SDS011;57335;52.288;6.056;2022-12-16T07:29:29;25.08;;;11.07;;
69750;SDS011;57335;52.288;6.056;2022-12-16T07:31:56;24.42;;;9.10;;
69750;SDS011;57335;52.288;6.056;2022-12-16T07:36:48;21.48;;;9.45;;
69750;SDS011;57335;52.288;6.056;2022-12-16T07:39:15;19.48;;;8.38;;
69750;SDS011;57335;52.288;6.056;2022-12-16T07:41:41;24.73;;;8.18;;
69750;SDS011;57335;52.288;6.056;2022-12-16T07:44:08;21.10;;;9.25;;
69750;SDS011;57335;52.288;6.056;2022-12-16T07:46:34;24.25;;;8.77;;
69750;SDS011;57335;52.288;6.056;2022-12-16T07:49:00;21.67;;;8.43;;
69750;SDS011;57335;52.288;6.056;2022-12-16T07:51:27;28.00;;;8.45;;
69750;SDS011;57335;52.288;6.056;2022-12-16T07:53:53;22.85;;;8.98;;
69750;SDS011;57335;52.288;6.056;2022-12-16T07:56:20;24.17;;;8.52;;
69750;SDS011;57335;52.288;6.056;2022-12-16T07:58:46;21.10;;;8.10;;
69750;SDS011;57335;52.288;6.056;2022-12-16T08:01:12;21.67;;;8.27;;
69750;SDS011;57335;52.288;6.056;2022-12-16T08:03:39;20.45;;;7.68;;
69750;SDS011;57335;52.288;6.056;2022-12-16T08:06:06;22.77;;;7.68;;
69750;SDS011;57335;52.288;6.056;2022-12-16T08:08:32;18.73;;;7.13;;
69750;SDS011;57335;52.288;6.056;2022-12-16T08:10:59;20.45;;;7.65;;
69750;SDS011;57335;52.288;6.056;2022-12-16T08:13:25;18.38;;;7.30;;
69750;SDS011;57335;52.288;6.056;2022-12-16T08:15:51;18.90;;;7.22;;
69750;SDS011;57335;52.288;6.056;2022-12-16T08:18:18;19.30;;;7.00;;
69750;SDS011;57335;52.288;6.056;2022-12-16T08:20:44;18.48;;;6.85;;
69750;SDS011;57335;52.288;6.056;2022-12-16T08:23:10;16.50;;;7.03;;
69750;SDS011;57335;52.288;6.056;2022-12-16T08:25:37;18.73;;;6.82;;
69750;SDS011;57335;52.288;6.056;2022-12-16T08:28:03;18.10;;;5.95;;
69750;SDS011;57335;52.288;6.056;2022-12-16T08:30:29;17.67;;;6.45;;
69750;SDS011;57335;52.288;6.056;2022-12-16T08:32:56;18.35;;;6.95;;
69750;SDS011;57335;52.288;6.056;2022-12-16T08:35:30;20.42;;;6.72;;
69750;SDS011;57335;52.288;6.056;2022-12-16T08:37:56;18.50;;;6.50;;
69750;SDS011;57335;52.288;6.056;2022-12-16T08:40:22;17.10;;;6.70;;
69750;SDS011;57335;52.288;6.056;2022-12-16T08:43:01;17.85;;;6.13;;
69750;SDS011;57335;52.288;6.056;2022-12-16T08:45:36;21.77;;;6.78;;
69750;SDS011;57335;52.288;6.056;2022-12-16T08:48:02;20.42;;;7.10;;
69750;SDS011;57335;52.288;6.056;2022-12-16T08:52:55;15.98;;;6.05;;
69750;SDS011;57335;52.288;6.056;2022-12-16T08:55:21;16.20;;;6.57;;
69750;SDS011;57335;52.288;6.056;2022-12-16T08:57:54;18.45;;;6.97;;
69750;SDS011;57335;52.288;6.056;2022-12-16T09:00:21;18.25;;;6.82;;
69750;SDS011;57335;52.288;6.056;2022-12-16T09:02:51;21.45;;;6.80;;
69750;SDS011;57335;52.288;6.056;2022-12-16T09:05:20;18.83;;;7.22;;
69750;SDS011;57335;52.288;6.056;2022-12-16T09:07:47;17.23;;;6.30;;
69750;SDS011;57335;52.288;6.056;2022-12-16T09:10:13;17.23;;;6.15;;
69750;SDS011;57335;52.288;6.056;2022-12-16T09:12:40;19.77;;;7.22;;
69750;SDS011;57335;52.288;6.056;2022-12-16T09:15:06;21.20;;;7.10;;
69750;SDS011;57335;52.288;6.056;2022-12-16T09:17:33;21.13;;;6.85;;
69750;SDS011;57335;52.288;6.056;2022-12-16T09:20:00;18.77;;;6.60;;
69750;SDS011;57335;52.288;6.056;2022-12-16T09:22:26;15.95;;;6.22;;
69750;SDS011;57335;52.288;6.056;2022-12-16T09:24:53;16.00;;;6.50;;
69750;SDS011;57335;52.288;6.056;2022-12-16T09:27:21;17.80;;;6.18;;
69750;SDS011;57335;52.288;6.056;2022-12-16T09:29:47;18.27;;;6.10;;
69750;SDS011;57335;52.288;6.056;2022-12-16T09:32:13;20.15;;;7.28;;
69750;SDS011;57335;52.288;6.056;2022-12-16T09:34:40;20.73;;;8.25;;
69750;SDS011;57335;52.288;6.056;2022-12-16T09:37:06;18.23;;;7.22;;
69750;SDS011;57335;52.288;6.056;2022-12-16T09:39:32;20.48;;;8.05;;
69750;SDS011;57335;52.288;6.056;2022-12-16T09:50:04;19.88;;;7.78;;
69750;SDS011;57335;52.288;6.056;2022-12-16T09:52:40;12.95;;;5.47;;
69750;SDS011;57335;52.288;6.056;2022-12-16T09:55:22;20.50;;;7.68;;
69750;SDS011;57335;52.288;6.056;2022-12-16T09:57:52;13.82;;;5.47;;
69750;SDS011;57335;52.288;6.056;2022-12-16T10:00:22;10.02;;;3.63;;
69750;SDS011;57335;52.288;6.056;2022-12-16T10:02:50;15.13;;;5.97;;
69750;SDS011;57335;52.288;6.056;2022-12-16T10:05:19;20.58;;;7.65;;
69750;SDS011;57335;52.288;6.056;2022-12-16T10:07:51;23.83;;;9.32;;
69750;SDS011;57335;52.288;6.056;2022-12-16T10:13:15;28.90;;;9.30;;
69750;SDS011;57335;52.288;6.056;2022-12-16T10:15:57;17.85;;;6.97;;
69750;SDS011;57335;52.288;6.056;2022-12-16T10:21:51;29.52;;;10.50;;
69750;SDS011;57335;52.288;6.056;2022-12-16T10:27:18;21.45;;;8.75;;
69750;SDS011;57335;52.288;6.056;2022-12-16T10:29:54;23.48;;;9.55;;
69750;SDS011;57335;52.288;6.056;2022-12-16T10:32:26;27.05;;;11.27;;
69750;SDS011;57335;52.288;6.056;2022-12-16T10:34:57;23.13;;;8.65;;
69750;SDS011;57335;52.288;6.056;2022-12-16T10:37:33;25.58;;;10.30;;
69750;SDS011;57335;52.288;6.056;2022-12-16T10:40:03;31.77;;;10.57;;
69750;SDS011;57335;52.288;6.056;2022-12-16T10:42:34;34.33;;;12.70;;
69750;SDS011;57335;52.288;6.056;2022-12-16T10:45:06;28.70;;;12.40;;
69750;SDS011;57335;52.288;6.056;2022-12-16T10:47:43;27.10;;;11.15;;
69750;SDS011;57335;52.288;6.056;2022-12-16T10:50:13;24.67;;;10.52;;
69750;SDS011;57335;52.288;6.056;2022-12-16T10:52:43;21.15;;;9.10;;
69750;SDS011;57335;52.288;6.056;2022-12-16T10:55:24;30.85;;;11.00;;
69750;SDS011;57335;52.288;6.056;2022-12-16T10:58:19;33.10;;;12.63;;
69750;SDS011;57335;52.288;6.056;2022-12-16T11:01:01;33.92;;;12.25;;
69750;SDS011;57335;52.288;6.056;2022-12-16T11:03:47;39.42;;;14.02;;
69750;SDS011;57335;52.288;6.056;2022-12-16T11:08:46;30.83;;;11.75;;
69750;SDS011;57335;52.288;6.056;2022-12-16T11:11:13;32.88;;;13.90;;
69750;SDS011;57335;52.288;6.056;2022-12-16T11:13:50;29.88;;;12.15;;
69750;SDS011;57335;52.288;6.056;2022-12-16T11:16:42;33.28;;;12.25;;
69750;SDS011;57335;52.288;6.056;2022-12-16T11:21:44;21.95;;;9.52;;
69750;SDS011;57335;52.288;6.056;2022-12-16T11:24:16;34.95;;;12.68;;
69750;SDS011;57335;52.288;6.056;2022-12-16T11:26:51;37.35;;;17.00;;
69750;SDS011;57335;52.288;6.056;2022-12-16T11:29:20;28.35;;;12.15;;
69750;SDS011;57335;52.288;6.056;2022-12-16T11:31:52;23.88;;;9.20;;
69750;SDS011;57335;52.288;6.056;2022-12-16T11:34:26;35.17;;;12.80;;
69750;SDS011;57335;52.288;6.056;2022-12-16T11:36:52;45.38;;;16.80;;
69750;SDS011;57335;52.288;6.056;2022-12-16T11:39:20;46.00;;;17.75;;
69750;SDS011;57335;52.288;6.056;2022-12-16T11:41:50;42.85;;;16.30;;
69750;SDS011;57335;52.288;6.056;2022-12-16T11:44:41;40.15;;;15.75;;
69750;SDS011;57335;52.288;6.056;2022-12-16T11:47:17;47.08;;;16.92;;
69750;SDS011;57335;52.288;6.056;2022-12-16T11:49:48;46.25;;;16.10;;
69750;SDS011;57335;52.288;6.056;2022-12-16T11:52:19;37.42;;;14.57;;
69750;SDS011;57335;52.288;6.056;2022-12-16T11:58:18;25.98;;;10.68;;
69750;SDS011;57335;52.288;6.056;2022-12-16T12:00:58;25.35;;;10.15;;
69750;SDS011;57335;52.288;6.056;2022-12-16T12:03:31;41.20;;;17.50;;
69750;SDS011;57335;52.288;6.056;2022-12-16T12:08:54;55.45;;;18.05;;
69750;SDS011;57335;52.288;6.056;2022-12-16T12:11:46;48.08;;;18.40;;
69750;SDS011;57335;52.288;6.056;2022-12-16T12:14:44;51.03;;;17.35;;
69750;SDS011;57335;52.288;6.056;2022-12-16T12:17:35;45.75;;;15.15;;
69750;SDS011;57335;52.288;6.056;2022-12-16T12:20:26;53.38;;;17.50;;
69750;SDS011;57335;52.288;6.056;2022-12-16T12:23:01;30.73;;;12.20;;
69750;SDS011;57335;52.288;6.056;2022-12-16T12:33:33;50.75;;;18.55;;
69750;SDS011;57335;52.288;6.056;2022-12-16T12:36:20;50.80;;;18.20;;
69750;SDS011;57335;52.288;6.056;2022-12-16T12:42:07;54.75;;;20.25;;
69750;SDS011;57335;52.288;6.056;2022-12-16T12:47:23;67.85;;;20.73;;
69750;SDS011;57335;52.288;6.056;2022-12-16T12:55:55;55.85;;;19.02;;
69750;SDS011;57335;52.288;6.056;2022-12-16T12:58:22;39.28;;;14.27;;
69750;SDS011;57335;52.288;6.056;2022-12-16T13:00:51;65.18;;;19.13;;
69750;SDS011;57335;52.288;6.056;2022-12-16T13:06:11;63.10;;;21.77;;
69750;SDS011;57335;52.288;6.056;2022-12-16T13:11:15;58.55;;;19.63;;
69750;SDS011;57335;52.288;6.056;2022-12-16T13:13:42;37.75;;;12.80;;
69750;SDS011;57335;52.288;6.056;2022-12-16T13:16:13;97.68;;;24.05;;
69750;SDS011;57335;52.288;6.056;2022-12-16T13:21:55;126.55;;;28.25;;
69750;SDS011;57335;52.288;6.056;2022-12-16T13:26:58;111.07;;;26.17;;
69750;SDS011;57335;52.288;6.056;2022-12-16T13:29:30;84.30;;;22.95;;
69750;SDS011;57335;52.288;6.056;2022-12-16T13:32:14;92.57;;;20.85;;
69750;SDS011;57335;52.288;6.056;2022-12-16T13:35:00;73.65;;;19.70;;
69750;SDS011;57335;52.288;6.056;2022-12-16T13:37:29;67.43;;;18.05;;
69750;SDS011;57335;52.288;6.056;2022-12-16T13:40:03;82.18;;;21.63;;
69750;SDS011;57335;52.288;6.056;2022-12-16T13:45:14;101.30;;;24.40;;
69750;SDS011;57335;52.288;6.056;2022-12-16T13:53:02;78.65;;;19.65;;
69750;SDS011;57335;52.288;6.056;2022-12-16T13:55:53;95.13;;;20.27;;
69750;SDS011;57335;52.288;6.056;2022-12-16T13:58:28;97.90;;;21.98;;
69750;SDS011;57335;52.288;6.056;2022-12-16T14:01:04;91.57;;;22.60;;
69750;SDS011;57335;52.288;6.056;2022-12-16T14:03:38;129.70;;;25.40;;
69750;SDS011;57335;52.288;6.056;2022-12-16T14:06:11;122.38;;;25.02;;
69750;SDS011;57335;52.288;6.056;2022-12-16T14:08:44;141.27;;;27.65;;
69750;SDS011;57335;52.288;6.056;2022-12-16T14:11:15;101.60;;;22.98;;
69750;SDS011;57335;52.288;6.056;2022-12-16T14:14:21;108.05;;;24.20;;
69750;SDS011;57335;52.288;6.056;2022-12-16T14:16:51;95.15;;;20.92;;
69750;SDS011;57335;52.288;6.056;2022-12-16T14:19:34;77.45;;;18.77;;
69750;SDS011;57335;52.288;6.056;2022-12-16T14:25:22;92.97;;;18.38;;
69750;SDS011;57335;52.288;6.056;2022-12-16T14:27:53;127.82;;;25.52;;
69750;SDS011;57335;52.288;6.056;2022-12-16T14:32:48;79.90;;;21.80;;
69750;SDS011;57335;52.288;6.056;2022-12-16T14:35:19;93.30;;;22.67;;
69750;SDS011;57335;52.288;6.056;2022-12-16T14:37:47;83.13;;;21.25;;
69750;SDS011;57335;52.288;6.056;2022-12-16T14:40:20;116.07;;;24.38;;
69750;SDS011;57335;52.288;6.056;2022-12-16T14:42:55;67.82;;;19.95;;
69750;SDS011;57335;52.288;6.056;2022-12-16T14:45:25;110.72;;;24.08;;
69750;SDS011;57335;52.288;6.056;2022-12-16T14:47:55;122.55;;;24.67;;
69750;SDS011;57335;52.288;6.056;2022-12-16T14:50:26;112.53;;;22.80;;
69750;SDS011;57335;52.288;6.056;2022-12-16T14:55:32;63.42;;;17.13;;
69750;SDS011;57335;52.288;6.056;2022-12-16T14:58:01;130.35;;;25.67;;
69750;SDS011;57335;52.288;6.056;2022-12-16T15:00:35;100.03;;;22.88;;
69750;SDS011;57335;52.288;6.056;2022-12-16T15:05:41;127.07;;;26.70;;
69750;SDS011;57335;52.288;6.056;2022-12-16T15:08:10;129.98;;;25.33;;
69750;SDS011;57335;52.288;6.056;2022-12-16T15:10:37;99.82;;;22.98;;
69750;SDS011;57335;52.288;6.056;2022-12-16T15:13:03;103.68;;;25.33;;
69750;SDS011;57335;52.288;6.056;2022-12-16T15:18:45;102.25;;;23.23;;
69750;SDS011;57335;52.288;6.056;2022-12-16T15:21:10;120.45;;;25.45;;
69750;SDS011;57335;52.288;6.056;2022-12-16T15:26:07;123.95;;;26.88;;
69750;SDS011;57335;52.288;6.056;2022-12-16T15:28:41;129.20;;;27.58;;
69750;SDS011;57335;52.288;6.056;2022-12-16T15:31:13;101.13;;;25.92;;
69750;SDS011;57335;52.288;6.056;2022-12-16T15:33:47;124.95;;;27.65;;
69750;SDS011;57335;52.288;6.056;2022-12-16T15:38:51;143.00;;;27.92;;
69750;SDS011;57335;52.288;6.056;2022-12-16T15:41:34;135.45;;;28.33;;
69750;SDS011;57335;52.288;6.056;2022-12-16T15:44:02;153.05;;;29.13;;
69750;SDS011;57335;52.288;6.056;2022-12-16T15:48:56;133.48;;;26.15;;
69750;SDS011;57335;52.288;6.056;2022-12-16T15:54:01;136.90;;;27.98;;
69750;SDS011;57335;52.288;6.056;2022-12-16T15:56:32;134.07;;;27.02;;
69750;SDS011;57335;52.288;6.056;2022-12-16T15:59:50;148.77;;;28.63;;
69750;SDS011;57335;52.288;6.056;2022-12-16T16:02:04;133.25;;;27.55;;
69750;SDS011;57335;52.288;6.056;2022-12-16T16:04:36;132.88;;;29.77;;
69750;SDS011;57335;52.288;6.056;2022-12-16T16:07:02;146.23;;;29.95;;
69750;SDS011;57335;52.288;6.056;2022-12-16T16:09:29;100.03;;;27.35;;
69750;SDS011;57335;52.288;6.056;2022-12-16T16:11:57;101.38;;;29.33;;
69750;SDS011;57335;52.288;6.056;2022-12-16T16:14:24;125.90;;;29.67;;
69750;SDS011;57335;52.288;6.056;2022-12-16T16:16:50;113.45;;;29.30;;
69750;SDS011;57335;52.288;6.056;2022-12-16T16:19:19;113.63;;;29.35;;
69750;SDS011;57335;52.288;6.056;2022-12-16T16:21:48;103.13;;;28.70;;
69750;SDS011;57335;52.288;6.056;2022-12-16T16:24:15;103.45;;;28.25;;
69750;SDS011;57335;52.288;6.056;2022-12-16T16:26:41;100.72;;;28.50;;
69750;SDS011;57335;52.288;6.056;2022-12-16T16:31:35;86.95;;;25.75;;
69750;SDS011;57335;52.288;6.056;2022-12-16T16:36:28;105.20;;;24.95;;
69750;SDS011;57335;52.288;6.056;2022-12-16T16:38:57;93.05;;;25.33;;
69750;SDS011;57335;52.288;6.056;2022-12-16T16:41:24;94.32;;;27.67;;
69750;SDS011;57335;52.288;6.056;2022-12-16T16:43:50;117.13;;;27.05;;
69750;SDS011;57335;52.288;6.056;2022-12-16T16:48:46;105.50;;;25.77;;
69750;SDS011;57335;52.288;6.056;2022-12-16T16:51:13;104.72;;;25.88;;
69750;SDS011;57335;52.288;6.056;2022-12-16T16:53:39;109.38;;;27.58;;
69750;SDS011;57335;52.288;6.056;2022-12-16T16:56:06;94.00;;;27.33;;
69750;SDS011;57335;52.288;6.056;2022-12-16T16:58:41;107.55;;;25.67;;
69750;SDS011;57335;52.288;6.056;2022-12-16T17:01:11;98.97;;;26.55;;
69750;SDS011;57335;52.288;6.056;2022-12-16T17:03:38;108.95;;;27.65;;
69750;SDS011;57335;52.288;6.056;2022-12-16T17:06:06;102.60;;;28.35;;
69750;SDS011;57335;52.288;6.056;2022-12-16T17:08:33;93.68;;;25.70;;
69750;SDS011;57335;52.288;6.056;2022-12-16T17:10:59;114.05;;;30.15;;
69750;SDS011;57335;52.288;6.056;2022-12-16T17:13:25;133.13;;;30.30;;
69750;SDS011;57335;52.288;6.056;2022-12-16T17:15:52;120.28;;;29.27;;
69750;SDS011;57335;52.288;6.056;2022-12-16T17:18:18;111.30;;;29.20;;
69750;SDS011;57335;52.288;6.056;2022-12-16T17:20:45;122.18;;;30.02;;
69750;SDS011;57335;52.288;6.056;2022-12-16T17:25:38;104.03;;;27.50;;